sensor_id;sensor_type;location;lat;lon;timestamp;P1;durP1;ratioP1;P2;durP2;ratioP2
53271;SDS011;39160;48.580;7.756;2023-08-21T00:00:37;7.07;;;3.35;;
53271;SDS011;39160;48.580;7.756;2023-08-21T00:05:27;5.68;;;3.97;;
53271;SDS011;39160;48.580;7.756;2023-08-21T00:10:18;4.18;;;3.13;;
53271;SDS011;39160;48.580;7.756;2023-08-21T00:20:03;6.38;;;3.25;;
53271;SDS011;39160;48.580;7.756;2023-08-21T00:24:54;3.95;;;3.55;;
53271;SDS011;39160;48.580;7.756;2023-08-21T00:29:44;5.88;;;3.25;;
53271;SDS011;39160;48.580;7.756;2023-08-21T00:34:35;6.10;;;3.10;;
53271;SDS011;39160;48.580;7.756;2023-08-21T00:39:26;3.45;;;3.00;;
53271;SDS011;39160;48.580;7.756;2023-08-21T00:44:17;4.43;;;3.35;;
53271;SDS011;39160;48.580;7.756;2023-08-21T00:49:08;5.40;;;3.72;;
53271;SDS011;39160;48.580;7.756;2023-08-21T00:53:59;4.45;;;3.17;;
53271;SDS011;39160;48.580;7.756;2023-08-21T00:58:50;3.85;;;3.00;;
53271;SDS011;39160;48.580;7.756;2023-08-21T01:03:40;3.20;;;2.80;;
53271;SDS011;39160;48.580;7.756;2023-08-21T01:18:40;5.32;;;3.38;;
53271;SDS011;39160;48.580;7.756;2023-08-21T01:23:32;5.85;;;3.50;;
53271;SDS011;39160;48.580;7.756;2023-08-21T01:28:24;6.55;;;3.35;;
53271;SDS011;39160;48.580;7.756;2023-08-21T01:33:15;4.55;;;3.33;;
53271;SDS011;39160;48.580;7.756;2023-08-21T01:38:07;3.85;;;2.97;;
53271;SDS011;39160;48.580;7.756;2023-08-21T01:42:57;4.75;;;3.35;;
53271;SDS011;39160;48.580;7.756;2023-08-21T01:47:48;4.70;;;3.75;;
53271;SDS011;39160;48.580;7.756;2023-08-21T01:52:39;5.55;;;3.10;;
53271;SDS011;39160;48.580;7.756;2023-08-21T01:57:29;5.10;;;3.92;;
53271;SDS011;39160;48.580;7.756;2023-08-21T02:02:20;6.40;;;3.30;;
53271;SDS011;39160;48.580;7.756;2023-08-21T02:07:10;4.80;;;2.95;;
53271;SDS011;39160;48.580;7.756;2023-08-21T02:12:01;3.53;;;2.65;;
53271;SDS011;39160;48.580;7.756;2023-08-21T02:16:52;3.78;;;2.97;;
53271;SDS011;39160;48.580;7.756;2023-08-21T02:21:43;4.78;;;3.00;;
53271;SDS011;39160;48.580;7.756;2023-08-21T02:26:33;5.38;;;2.88;;
53271;SDS011;39160;48.580;7.756;2023-08-21T02:31:24;6.32;;;3.03;;
53271;SDS011;39160;48.580;7.756;2023-08-21T02:36:15;3.17;;;2.85;;
53271;SDS011;39160;48.580;7.756;2023-08-21T02:41:06;4.82;;;3.65;;
53271;SDS011;39160;48.580;7.756;2023-08-21T02:45:57;6.50;;;4.35;;
53271;SDS011;39160;48.580;7.756;2023-08-21T02:50:48;8.32;;;4.85;;
53271;SDS011;39160;48.580;7.756;2023-08-21T02:55:38;8.65;;;4.60;;
53271;SDS011;39160;48.580;7.756;2023-08-21T03:00:29;5.40;;;3.58;;
53271;SDS011;39160;48.580;7.756;2023-08-21T03:05:20;5.72;;;3.40;;
53271;SDS011;39160;48.580;7.756;2023-08-21T03:10:11;5.72;;;3.58;;
53271;SDS011;39160;48.580;7.756;2023-08-21T03:15:02;4.05;;;3.50;;
53271;SDS011;39160;48.580;7.756;2023-08-21T03:24:46;5.50;;;2.95;;
53271;SDS011;39160;48.580;7.756;2023-08-21T03:29:37;4.03;;;3.35;;
53271;SDS011;39160;48.580;7.756;2023-08-21T03:34:28;5.25;;;3.80;;
53271;SDS011;39160;48.580;7.756;2023-08-21T03:39:18;6.22;;;3.40;;
53271;SDS011;39160;48.580;7.756;2023-08-21T03:44:10;6.88;;;3.22;;
53271;SDS011;39160;48.580;7.756;2023-08-21T03:49:00;5.70;;;3.35;;
53271;SDS011;39160;48.580;7.756;2023-08-21T03:53:51;7.07;;;3.72;;
53271;SDS011;39160;48.580;7.756;2023-08-21T03:58:42;6.78;;;3.90;;
53271;SDS011;39160;48.580;7.756;2023-08-21T04:03:32;6.20;;;3.28;;
53271;SDS011;39160;48.580;7.756;2023-08-21T04:08:23;4.88;;;3.70;;
53271;SDS011;39160;48.580;7.756;2023-08-21T04:13:13;4.82;;;3.40;;
53271;SDS011;39160;48.580;7.756;2023-08-21T04:18:04;5.35;;;3.75;;
53271;SDS011;39160;48.580;7.756;2023-08-21T04:22:55;4.05;;;3.53;;
53271;SDS011;39160;48.580;7.756;2023-08-21T04:27:46;8.15;;;3.60;;
53271;SDS011;39160;48.580;7.756;2023-08-21T04:32:37;4.28;;;3.15;;
53271;SDS011;39160;48.580;7.756;2023-08-21T04:37:28;8.00;;;3.65;;
53271;SDS011;39160;48.580;7.756;2023-08-21T04:42:19;7.82;;;4.75;;
53271;SDS011;39160;48.580;7.756;2023-08-21T04:47:20;4.80;;;3.20;;
53271;SDS011;39160;48.580;7.756;2023-08-21T04:52:12;6.95;;;4.30;;
53271;SDS011;39160;48.580;7.756;2023-08-21T04:57:03;5.15;;;4.05;;
53271;SDS011;39160;48.580;7.756;2023-08-21T05:01:53;7.22;;;4.00;;
53271;SDS011;39160;48.580;7.756;2023-08-21T05:06:44;7.43;;;4.75;;
53271;SDS011;39160;48.580;7.756;2023-08-21T05:11:35;6.35;;;4.28;;
53271;SDS011;39160;48.580;7.756;2023-08-21T05:16:25;4.88;;;3.78;;
53271;SDS011;39160;48.580;7.756;2023-08-21T05:21:16;6.30;;;4.28;;
53271;SDS011;39160;48.580;7.756;2023-08-21T05:26:06;5.50;;;4.07;;
53271;SDS011;39160;48.580;7.756;2023-08-21T05:30:59;6.05;;;4.80;;
53271;SDS011;39160;48.580;7.756;2023-08-21T05:35:50;6.05;;;4.63;;
53271;SDS011;39160;48.580;7.756;2023-08-21T05:40:41;6.75;;;4.50;;
53271;SDS011;39160;48.580;7.756;2023-08-21T05:45:32;4.93;;;4.20;;
53271;SDS011;39160;48.580;7.756;2023-08-21T05:50:23;7.72;;;4.15;;
53271;SDS011;39160;48.580;7.756;2023-08-21T05:55:13;7.35;;;4.03;;
53271;SDS011;39160;48.580;7.756;2023-08-21T06:00:04;5.95;;;3.97;;
53271;SDS011;39160;48.580;7.756;2023-08-21T06:04:58;5.10;;;4.05;;
53271;SDS011;39160;48.580;7.756;2023-08-21T06:09:49;6.05;;;4.10;;
53271;SDS011;39160;48.580;7.756;2023-08-21T06:14:39;7.07;;;4.80;;
53271;SDS011;39160;48.580;7.756;2023-08-21T06:19:30;8.40;;;4.53;;
53271;SDS011;39160;48.580;7.756;2023-08-21T06:24:20;6.63;;;4.80;;
53271;SDS011;39160;48.580;7.756;2023-08-21T06:29:11;5.75;;;4.28;;
53271;SDS011;39160;48.580;7.756;2023-08-21T06:34:02;5.20;;;3.63;;
53271;SDS011;39160;48.580;7.756;2023-08-21T06:38:52;8.23;;;3.75;;
53271;SDS011;39160;48.580;7.756;2023-08-21T06:43:43;6.20;;;4.28;;
53271;SDS011;39160;48.580;7.756;2023-08-21T06:48:37;6.45;;;4.07;;
53271;SDS011;39160;48.580;7.756;2023-08-21T06:53:32;6.28;;;4.50;;
53271;SDS011;39160;48.580;7.756;2023-08-21T06:58:23;7.50;;;4.55;;
53271;SDS011;39160;48.580;7.756;2023-08-21T07:03:13;5.93;;;4.35;;
53271;SDS011;39160;48.580;7.756;2023-08-21T07:08:04;5.53;;;4.45;;
53271;SDS011;39160;48.580;7.756;2023-08-21T07:12:55;5.47;;;4.40;;
53271;SDS011;39160;48.580;7.756;2023-08-21T07:17:46;6.43;;;4.68;;
53271;SDS011;39160;48.580;7.756;2023-08-21T07:22:37;6.32;;;4.45;;
53271;SDS011;39160;48.580;7.756;2023-08-21T07:27:28;6.10;;;4.75;;
53271;SDS011;39160;48.580;7.756;2023-08-21T07:32:19;6.95;;;4.53;;
53271;SDS011;39160;48.580;7.756;2023-08-21T07:37:20;5.63;;;4.45;;
53271;SDS011;39160;48.580;7.756;2023-08-21T07:42:11;7.28;;;5.50;;
53271;SDS011;39160;48.580;7.756;2023-08-21T07:47:02;7.35;;;5.60;;
53271;SDS011;39160;48.580;7.756;2023-08-21T07:51:53;11.73;;;5.45;;
53271;SDS011;39160;48.580;7.756;2023-08-21T07:56:44;7.82;;;5.43;;
53271;SDS011;39160;48.580;7.756;2023-08-21T08:01:35;9.23;;;4.82;;
53271;SDS011;39160;48.580;7.756;2023-08-21T08:06:25;7.95;;;4.82;;
53271;SDS011;39160;48.580;7.756;2023-08-21T08:11:16;6.68;;;5.20;;
53271;SDS011;39160;48.580;7.756;2023-08-21T08:16:07;7.78;;;5.30;;
53271;SDS011;39160;48.580;7.756;2023-08-21T08:21:01;10.63;;;5.93;;
53271;SDS011;39160;48.580;7.756;2023-08-21T08:25:51;8.25;;;5.28;;
53271;SDS011;39160;48.580;7.756;2023-08-21T08:30:43;7.25;;;5.70;;
53271;SDS011;39160;48.580;7.756;2023-08-21T08:35:35;7.82;;;5.22;;
53271;SDS011;39160;48.580;7.756;2023-08-21T08:40:26;7.88;;;6.18;;
53271;SDS011;39160;48.580;7.756;2023-08-21T08:45:16;8.10;;;5.47;;
53271;SDS011;39160;48.580;7.756;2023-08-21T08:50:17;8.93;;;5.65;;
53271;SDS011;39160;48.580;7.756;2023-08-21T08:55:10;9.65;;;6.18;;
53271;SDS011;39160;48.580;7.756;2023-08-21T09:00:02;11.77;;;7.60;;
53271;SDS011;39160;48.580;7.756;2023-08-21T09:04:54;9.68;;;5.20;;
53271;SDS011;39160;48.580;7.756;2023-08-21T09:09:45;7.65;;;5.40;;
53271;SDS011;39160;48.580;7.756;2023-08-21T09:14:37;7.57;;;5.22;;
53271;SDS011;39160;48.580;7.756;2023-08-21T09:19:29;7.55;;;5.57;;
53271;SDS011;39160;48.580;7.756;2023-08-21T09:24:19;8.57;;;5.15;;
53271;SDS011;39160;48.580;7.756;2023-08-21T09:29:10;7.57;;;5.07;;
53271;SDS011;39160;48.580;7.756;2023-08-21T09:34:02;8.27;;;6.35;;
53271;SDS011;39160;48.580;7.756;2023-08-21T09:38:57;11.13;;;5.75;;
53271;SDS011;39160;48.580;7.756;2023-08-21T09:43:48;9.27;;;5.50;;
53271;SDS011;39160;48.580;7.756;2023-08-21T09:48:39;7.20;;;5.10;;
53271;SDS011;39160;48.580;7.756;2023-08-21T09:53:30;8.60;;;5.55;;
53271;SDS011;39160;48.580;7.756;2023-08-21T09:58:22;8.38;;;4.82;;
53271;SDS011;39160;48.580;7.756;2023-08-21T10:03:12;13.15;;;5.70;;
53271;SDS011;39160;48.580;7.756;2023-08-21T10:08:04;7.45;;;4.60;;
53271;SDS011;39160;48.580;7.756;2023-08-21T10:12:56;5.22;;;4.35;;
53271;SDS011;39160;48.580;7.756;2023-08-21T10:17:47;6.70;;;4.45;;
53271;SDS011;39160;48.580;7.756;2023-08-21T10:22:48;6.32;;;4.95;;
53271;SDS011;39160;48.580;7.756;2023-08-21T10:27:40;5.72;;;5.10;;
53271;SDS011;39160;48.580;7.756;2023-08-21T10:32:32;7.78;;;5.55;;
53271;SDS011;39160;48.580;7.756;2023-08-21T10:37:23;7.75;;;5.60;;
53271;SDS011;39160;48.580;7.756;2023-08-21T10:42:14;7.88;;;5.18;;
53271;SDS011;39160;48.580;7.756;2023-08-21T10:52:25;7.95;;;4.80;;
53271;SDS011;39160;48.580;7.756;2023-08-21T10:57:21;5.88;;;4.47;;
53271;SDS011;39160;48.580;7.756;2023-08-21T11:02:14;4.82;;;4.00;;
53271;SDS011;39160;48.580;7.756;2023-08-21T11:07:04;6.15;;;4.20;;
53271;SDS011;39160;48.580;7.756;2023-08-21T11:11:55;4.88;;;3.63;;
53271;SDS011;39160;48.580;7.756;2023-08-21T11:16:46;6.03;;;4.13;;
53271;SDS011;39160;48.580;7.756;2023-08-21T11:21:38;7.40;;;4.50;;
53271;SDS011;39160;48.580;7.756;2023-08-21T11:26:33;6.35;;;4.05;;
53271;SDS011;39160;48.580;7.756;2023-08-21T11:31:24;6.80;;;4.65;;
53271;SDS011;39160;48.580;7.756;2023-08-21T11:36:14;5.65;;;4.03;;
53271;SDS011;39160;48.580;7.756;2023-08-21T11:41:05;6.50;;;4.45;;
53271;SDS011;39160;48.580;7.756;2023-08-21T11:45:56;8.05;;;4.60;;
53271;SDS011;39160;48.580;7.756;2023-08-21T11:50:47;9.40;;;4.07;;
53271;SDS011;39160;48.580;7.756;2023-08-21T11:55:38;8.40;;;4.15;;
53271;SDS011;39160;48.580;7.756;2023-08-21T12:00:29;4.45;;;3.60;;
53271;SDS011;39160;48.580;7.756;2023-08-21T12:05:20;6.03;;;4.78;;
53271;SDS011;39160;48.580;7.756;2023-08-21T12:10:11;5.78;;;3.88;;
53271;SDS011;39160;48.580;7.756;2023-08-21T12:15:02;5.20;;;3.72;;
53271;SDS011;39160;48.580;7.756;2023-08-21T12:19:53;5.80;;;3.95;;
53271;SDS011;39160;48.580;7.756;2023-08-21T12:24:43;5.93;;;4.18;;
53271;SDS011;39160;48.580;7.756;2023-08-21T12:29:34;7.78;;;4.70;;
53271;SDS011;39160;48.580;7.756;2023-08-21T12:34:26;6.35;;;3.85;;
53271;SDS011;39160;48.580;7.756;2023-08-21T12:39:16;5.60;;;3.72;;
53271;SDS011;39160;48.580;7.756;2023-08-21T12:44:08;7.40;;;4.28;;
53271;SDS011;39160;48.580;7.756;2023-08-21T12:48:59;5.75;;;3.40;;
53271;SDS011;39160;48.580;7.756;2023-08-21T12:53:51;5.28;;;3.65;;
53271;SDS011;39160;48.580;7.756;2023-08-21T13:03:36;5.18;;;3.58;;
53271;SDS011;39160;48.580;7.756;2023-08-21T13:08:26;5.35;;;3.88;;
53271;SDS011;39160;48.580;7.756;2023-08-21T13:13:17;4.65;;;4.07;;
53271;SDS011;39160;48.580;7.756;2023-08-21T13:18:08;7.20;;;3.75;;
53271;SDS011;39160;48.580;7.756;2023-08-21T13:22:58;4.82;;;3.58;;
53271;SDS011;39160;48.580;7.756;2023-08-21T13:27:50;4.57;;;3.15;;
53271;SDS011;39160;48.580;7.756;2023-08-21T13:32:42;4.05;;;3.17;;
53271;SDS011;39160;48.580;7.756;2023-08-21T13:37:33;5.65;;;3.17;;
53271;SDS011;39160;48.580;7.756;2023-08-21T13:42:23;4.15;;;3.22;;
53271;SDS011;39160;48.580;7.756;2023-08-21T13:47:14;4.13;;;2.92;;
53271;SDS011;39160;48.580;7.756;2023-08-21T13:52:04;6.30;;;3.80;;
53271;SDS011;39160;48.580;7.756;2023-08-21T13:56:55;5.78;;;3.53;;
53271;SDS011;39160;48.580;7.756;2023-08-21T14:01:50;6.63;;;3.47;;
53271;SDS011;39160;48.580;7.756;2023-08-21T14:06:40;4.85;;;3.42;;
53271;SDS011;39160;48.580;7.756;2023-08-21T14:11:31;4.90;;;3.35;;
53271;SDS011;39160;48.580;7.756;2023-08-21T14:16:21;6.63;;;3.13;;
53271;SDS011;39160;48.580;7.756;2023-08-21T14:21:12;4.18;;;2.63;;
53271;SDS011;39160;48.580;7.756;2023-08-21T14:26:03;3.80;;;2.97;;
53271;SDS011;39160;48.580;7.756;2023-08-21T14:30:53;4.05;;;3.33;;
53271;SDS011;39160;48.580;7.756;2023-08-21T14:35:44;6.25;;;3.05;;
53271;SDS011;39160;48.580;7.756;2023-08-21T14:40:36;3.65;;;3.17;;
53271;SDS011;39160;48.580;7.756;2023-08-21T14:45:26;5.97;;;2.95;;
53271;SDS011;39160;48.580;7.756;2023-08-21T14:50:17;4.18;;;2.53;;
53271;SDS011;39160;48.580;7.756;2023-08-21T14:55:08;3.13;;;2.83;;
53271;SDS011;39160;48.580;7.756;2023-08-21T14:59:59;4.75;;;3.00;;
53271;SDS011;39160;48.580;7.756;2023-08-21T15:04:49;3.30;;;2.47;;
53271;SDS011;39160;48.580;7.756;2023-08-21T15:09:40;7.15;;;3.25;;
53271;SDS011;39160;48.580;7.756;2023-08-21T15:14:30;3.15;;;2.85;;
53271;SDS011;39160;48.580;7.756;2023-08-21T15:19:21;5.70;;;3.17;;
53271;SDS011;39160;48.580;7.756;2023-08-21T15:24:11;3.20;;;2.90;;
53271;SDS011;39160;48.580;7.756;2023-08-21T15:29:02;5.03;;;3.22;;
53271;SDS011;39160;48.580;7.756;2023-08-21T15:33:54;3.92;;;2.90;;
53271;SDS011;39160;48.580;7.756;2023-08-21T15:38:45;3.47;;;2.60;;
53271;SDS011;39160;48.580;7.756;2023-08-21T15:43:35;3.83;;;2.65;;
53271;SDS011;39160;48.580;7.756;2023-08-21T15:48:26;4.53;;;2.60;;
53271;SDS011;39160;48.580;7.756;2023-08-21T15:53:16;3.38;;;2.75;;
53271;SDS011;39160;48.580;7.756;2023-08-21T15:58:07;5.18;;;3.42;;
53271;SDS011;39160;48.580;7.756;2023-08-21T16:02:58;2.85;;;2.55;;
53271;SDS011;39160;48.580;7.756;2023-08-21T16:07:48;3.28;;;2.63;;
53271;SDS011;39160;48.580;7.756;2023-08-21T16:12:39;3.50;;;2.70;;
53271;SDS011;39160;48.580;7.756;2023-08-21T16:17:30;3.20;;;2.55;;
53271;SDS011;39160;48.580;7.756;2023-08-21T16:22:20;4.60;;;3.20;;
53271;SDS011;39160;48.580;7.756;2023-08-21T16:27:11;3.63;;;3.33;;
53271;SDS011;39160;48.580;7.756;2023-08-21T16:32:02;4.72;;;2.55;;
53271;SDS011;39160;48.580;7.756;2023-08-21T16:36:53;4.85;;;3.28;;
53271;SDS011;39160;48.580;7.756;2023-08-21T16:41:43;4.93;;;3.38;;
53271;SDS011;39160;48.580;7.756;2023-08-21T16:46:35;3.50;;;2.90;;
53271;SDS011;39160;48.580;7.756;2023-08-21T16:51:26;2.53;;;2.22;;
53271;SDS011;39160;48.580;7.756;2023-08-21T16:56:16;4.18;;;2.92;;
53271;SDS011;39160;48.580;7.756;2023-08-21T17:01:07;4.55;;;2.10;;
53271;SDS011;39160;48.580;7.756;2023-08-21T17:05:58;4.00;;;2.30;;
53271;SDS011;39160;48.580;7.756;2023-08-21T17:10:48;2.15;;;1.73;;
53271;SDS011;39160;48.580;7.756;2023-08-21T17:15:39;5.20;;;1.80;;
53271;SDS011;39160;48.580;7.756;2023-08-21T17:20:30;3.33;;;1.95;;
53271;SDS011;39160;48.580;7.756;2023-08-21T17:25:21;2.70;;;1.67;;
53271;SDS011;39160;48.580;7.756;2023-08-21T17:30:12;3.97;;;2.33;;
53271;SDS011;39160;48.580;7.756;2023-08-21T17:35:03;1.52;;;1.40;;
53271;SDS011;39160;48.580;7.756;2023-08-21T17:39:54;3.90;;;1.70;;
53271;SDS011;39160;48.580;7.756;2023-08-21T17:44:45;2.63;;;1.63;;
53271;SDS011;39160;48.580;7.756;2023-08-21T17:49:35;2.72;;;1.70;;
53271;SDS011;39160;48.580;7.756;2023-08-21T17:54:26;2.15;;;1.60;;
53271;SDS011;39160;48.580;7.756;2023-08-21T17:59:17;2.20;;;1.52;;
53271;SDS011;39160;48.580;7.756;2023-08-21T18:04:08;4.88;;;1.73;;
53271;SDS011;39160;48.580;7.756;2023-08-21T18:08:59;5.78;;;2.47;;
53271;SDS011;39160;48.580;7.756;2023-08-21T18:13:49;3.08;;;1.70;;
53271;SDS011;39160;48.580;7.756;2023-08-21T18:18:40;4.60;;;1.65;;
53271;SDS011;39160;48.580;7.756;2023-08-21T18:23:32;5.93;;;2.50;;
53271;SDS011;39160;48.580;7.756;2023-08-21T18:28:23;6.00;;;1.83;;
53271;SDS011;39160;48.580;7.756;2023-08-21T18:33:14;3.30;;;1.85;;
53271;SDS011;39160;48.580;7.756;2023-08-21T18:38:05;2.38;;;1.90;;
53271;SDS011;39160;48.580;7.756;2023-08-21T18:42:56;3.22;;;1.90;;
53271;SDS011;39160;48.580;7.756;2023-08-21T18:47:47;4.78;;;2.63;;
53271;SDS011;39160;48.580;7.756;2023-08-21T18:52:38;5.18;;;2.05;;
53271;SDS011;39160;48.580;7.756;2023-08-21T18:57:29;2.83;;;1.95;;
53271;SDS011;39160;48.580;7.756;2023-08-21T19:02:19;3.05;;;2.30;;
53271;SDS011;39160;48.580;7.756;2023-08-21T19:07:10;6.20;;;3.10;;
53271;SDS011;39160;48.580;7.756;2023-08-21T19:12:00;3.70;;;1.70;;
53271;SDS011;39160;48.580;7.756;2023-08-21T19:16:51;4.00;;;2.55;;
53271;SDS011;39160;48.580;7.756;2023-08-21T19:21:43;3.33;;;2.28;;
53271;SDS011;39160;48.580;7.756;2023-08-21T19:26:33;3.30;;;1.77;;
53271;SDS011;39160;48.580;7.756;2023-08-21T19:31:24;2.80;;;1.98;;
53271;SDS011;39160;48.580;7.756;2023-08-21T19:36:14;4.40;;;2.55;;
53271;SDS011;39160;48.580;7.756;2023-08-21T19:41:08;3.80;;;2.00;;
53271;SDS011;39160;48.580;7.756;2023-08-21T19:46:00;2.75;;;2.15;;
53271;SDS011;39160;48.580;7.756;2023-08-21T19:50:56;3.85;;;2.10;;
53271;SDS011;39160;48.580;7.756;2023-08-21T19:55:52;3.90;;;1.92;;
53271;SDS011;39160;48.580;7.756;2023-08-21T20:00:43;3.55;;;2.17;;
53271;SDS011;39160;48.580;7.756;2023-08-21T20:05:34;4.47;;;2.30;;
53271;SDS011;39160;48.580;7.756;2023-08-21T20:10:24;4.22;;;2.28;;
53271;SDS011;39160;48.580;7.756;2023-08-21T20:15:15;3.85;;;2.83;;
53271;SDS011;39160;48.580;7.756;2023-08-21T20:20:06;7.07;;;2.47;;
53271;SDS011;39160;48.580;7.756;2023-08-21T20:25:04;5.30;;;2.55;;
53271;SDS011;39160;48.580;7.756;2023-08-21T20:29:56;5.55;;;2.45;;
53271;SDS011;39160;48.580;7.756;2023-08-21T20:34:46;3.28;;;2.22;;
53271;SDS011;39160;48.580;7.756;2023-08-21T20:39:38;3.53;;;2.13;;
53271;SDS011;39160;48.580;7.756;2023-08-21T20:44:28;12.57;;;3.13;;
53271;SDS011;39160;48.580;7.756;2023-08-21T20:49:19;4.45;;;2.25;;
53271;SDS011;39160;48.580;7.756;2023-08-21T20:54:13;3.45;;;2.83;;
53271;SDS011;39160;48.580;7.756;2023-08-21T20:59:04;3.53;;;2.25;;
53271;SDS011;39160;48.580;7.756;2023-08-21T21:03:54;3.38;;;2.17;;
53271;SDS011;39160;48.580;7.756;2023-08-21T21:08:45;2.65;;;2.08;;
53271;SDS011;39160;48.580;7.756;2023-08-21T21:13:36;5.60;;;2.45;;
53271;SDS011;39160;48.580;7.756;2023-08-21T21:18:26;5.40;;;2.50;;
53271;SDS011;39160;48.580;7.756;2023-08-21T21:23:17;6.85;;;2.60;;
53271;SDS011;39160;48.580;7.756;2023-08-21T21:28:11;3.25;;;2.35;;
53271;SDS011;39160;48.580;7.756;2023-08-21T21:33:01;3.90;;;2.50;;
53271;SDS011;39160;48.580;7.756;2023-08-21T21:37:53;3.50;;;2.17;;
53271;SDS011;39160;48.580;7.756;2023-08-21T21:42:43;3.28;;;1.88;;
53271;SDS011;39160;48.580;7.756;2023-08-21T21:47:34;3.70;;;2.47;;
53271;SDS011;39160;48.580;7.756;2023-08-21T21:52:25;4.28;;;2.35;;
53271;SDS011;39160;48.580;7.756;2023-08-21T21:57:16;4.45;;;2.60;;
53271;SDS011;39160;48.580;7.756;2023-08-21T22:02:11;4.75;;;2.28;;
53271;SDS011;39160;48.580;7.756;2023-08-21T22:07:02;3.85;;;2.03;;
53271;SDS011;39160;48.580;7.756;2023-08-21T22:11:54;2.83;;;2.22;;
53271;SDS011;39160;48.580;7.756;2023-08-21T22:16:44;4.03;;;2.35;;
53271;SDS011;39160;48.580;7.756;2023-08-21T22:21:35;4.55;;;2.25;;
53271;SDS011;39160;48.580;7.756;2023-08-21T22:26:26;2.25;;;1.88;;
53271;SDS011;39160;48.580;7.756;2023-08-21T22:31:16;4.15;;;2.28;;
53271;SDS011;39160;48.580;7.756;2023-08-21T22:41:01;4.70;;;3.60;;
53271;SDS011;39160;48.580;7.756;2023-08-21T22:45:53;3.83;;;2.55;;
53271;SDS011;39160;48.580;7.756;2023-08-21T22:50:45;3.63;;;2.20;;
53271;SDS011;39160;48.580;7.756;2023-08-21T22:55:35;2.80;;;1.90;;
53271;SDS011;39160;48.580;7.756;2023-08-21T23:00:26;3.95;;;2.22;;
53271;SDS011;39160;48.580;7.756;2023-08-21T23:05:17;3.80;;;2.13;;
53271;SDS011;39160;48.580;7.756;2023-08-21T23:10:08;5.22;;;2.42;;
53271;SDS011;39160;48.580;7.756;2023-08-21T23:14:59;2.10;;;1.90;;
53271;SDS011;39160;48.580;7.756;2023-08-21T23:19:53;3.15;;;2.03;;
53271;SDS011;39160;48.580;7.756;2023-08-21T23:24:44;5.03;;;1.90;;
53271;SDS011;39160;48.580;7.756;2023-08-21T23:29:34;2.20;;;1.80;;
53271;SDS011;39160;48.580;7.756;2023-08-21T23:34:25;2.97;;;1.70;;
53271;SDS011;39160;48.580;7.756;2023-08-21T23:39:15;4.65;;;2.08;;
53271;SDS011;39160;48.580;7.756;2023-08-21T23:44:06;2.45;;;1.75;;
53271;SDS011;39160;48.580;7.756;2023-08-21T23:48:57;3.75;;;2.40;;
53271;SDS011;39160;48.580;7.756;2023-08-21T23:53:47;2.30;;;1.70;;
53271;SDS011;39160;48.580;7.756;2023-08-21T23:58:38;3.05;;;1.98;;
